createdAt,value
2017-10-30T00:02:17.980Z,11.50
2017-10-30T00:04:45.546Z,12.70
2017-10-30T00:07:13.045Z,10.53
2017-10-30T00:09:40.536Z,8.10
2017-10-30T00:12:08.074Z,12.03
2017-10-30T00:14:35.553Z,7.67
2017-10-30T00:17:03.120Z,11.53
2017-10-30T00:19:30.784Z,9.53
2017-10-30T00:21:58.324Z,10.80
2017-10-30T00:24:26.589Z,10.00
2017-10-30T00:26:54.124Z,10.70
2017-10-30T00:29:21.627Z,9.03
2017-10-30T00:31:49.932Z,14.43
2017-10-30T00:34:17.474Z,12.00
2017-10-30T00:36:45.125Z,13.63
2017-10-30T00:39:12.629Z,9.50
2017-10-30T00:41:40.186Z,14.10
2017-10-30T00:44:07.779Z,10.93
2017-10-30T00:46:36.196Z,15.13
2017-10-30T00:49:03.688Z,19.90
2017-10-30T00:51:31.721Z,8.50
2017-10-30T00:53:59.227Z,19.57
2017-10-30T00:56:27.570Z,7.63
2017-10-30T00:58:55.114Z,21.57
2017-10-30T01:01:22.640Z,15.33
2017-10-30T01:03:50.151Z,7.50
2017-10-30T01:06:17.702Z,12.50
2017-10-30T01:08:45.323Z,21.10
2017-10-30T01:11:13.691Z,17.10
2017-10-30T01:13:41.215Z,9.37
2017-10-30T01:16:08.738Z,11.43
2017-10-30T01:18:36.276Z,8.77
2017-10-30T01:21:04.585Z,8.37
2017-10-30T01:23:32.127Z,13.80
2017-10-30T01:26:00.402Z,10.27
2017-10-30T01:28:27.924Z,11.03
2017-10-30T01:30:55.471Z,6.47
2017-10-30T01:33:22.986Z,18.63
2017-10-30T01:35:50.528Z,6.03
2017-10-30T01:38:18.110Z,8.50
2017-10-30T01:40:45.652Z,13.83
2017-10-30T01:43:13.170Z,10.23
2017-10-30T01:45:40.658Z,9.70
2017-10-30T01:48:09.107Z,10.63
2017-10-30T01:50:36.618Z,7.93
2017-10-30T01:53:04.146Z,9.47
2017-10-30T01:55:31.687Z,8.67
2017-10-30T01:57:59.195Z,8.57
2017-10-30T02:00:26.776Z,8.47
2017-10-30T02:02:54.293Z,9.63
2017-10-30T02:05:22.583Z,9.20
2017-10-30T02:07:50.873Z,9.80
2017-10-30T02:10:18.968Z,8.13
2017-10-30T02:12:46.480Z,12.30
2017-10-30T02:15:14.800Z,9.70
2017-10-30T02:17:42.363Z,8.80
2017-10-30T02:20:09.921Z,6.83
2017-10-30T02:22:37.483Z,7.53
2017-10-30T02:25:05.024Z,16.07
2017-10-30T02:27:32.813Z,9.27
2017-10-30T02:30:00.348Z,14.67
2017-10-30T02:32:27.899Z,8.23
2017-10-30T02:34:55.428Z,11.30
2017-10-30T02:37:23.714Z,8.53
2017-10-30T02:39:51.232Z,12.80
2017-10-30T02:42:18.786Z,8.77
2017-10-30T02:44:46.296Z,11.63
2017-10-30T02:47:13.860Z,8.80
2017-10-30T02:49:41.935Z,7.07
2017-10-30T02:52:10.026Z,13.00
2017-10-30T02:54:37.547Z,9.07
2017-10-30T02:57:05.816Z,9.60
2017-10-30T02:59:33.356Z,11.20
2017-10-30T03:02:00.864Z,8.83
2017-10-30T03:04:28.403Z,17.97
2017-10-30T03:06:55.931Z,7.97
2017-10-30T03:09:23.423Z,15.83
2017-10-30T03:11:50.968Z,10.90
2017-10-30T03:14:18.460Z,18.70
2017-10-30T03:16:45.977Z,9.63
2017-10-30T03:19:13.513Z,10.43
2017-10-30T03:21:41.052Z,17.03
2017-10-30T03:24:08.567Z,8.60
2017-10-30T03:26:36.869Z,13.83
2017-10-30T03:29:04.370Z,7.23
2017-10-30T03:31:31.887Z,11.80
2017-10-30T03:33:59.432Z,13.33
2017-10-30T03:36:26.928Z,14.30
2017-10-30T03:38:54.424Z,9.60
2017-10-30T03:41:21.945Z,10.73
2017-10-30T03:43:50.014Z,14.60
2017-10-30T03:46:17.552Z,11.57
2017-10-30T03:48:45.067Z,12.07
2017-10-30T03:51:12.625Z,8.40
2017-10-30T03:53:40.140Z,6.87
2017-10-30T03:56:07.672Z,10.57
2017-10-30T03:58:35.935Z,9.00
2017-10-30T04:01:03.433Z,11.07
2017-10-30T04:03:30.984Z,9.10
2017-10-30T04:05:58.490Z,14.60
2017-10-30T04:08:25.982Z,11.63
2017-10-30T04:10:53.521Z,10.63
2017-10-30T04:13:21.009Z,11.47
2017-10-30T04:15:49.360Z,14.80
2017-10-30T04:18:17.632Z,10.90
2017-10-30T04:20:45.186Z,9.13
2017-10-30T04:23:12.705Z,10.30
2017-10-30T04:25:40.271Z,7.77
2017-10-30T04:28:08.052Z,13.73
2017-10-30T04:30:35.605Z,13.13
2017-10-30T04:33:03.096Z,7.13
2017-10-30T04:35:31.353Z,9.93
2017-10-30T04:37:58.881Z,10.80
2017-10-30T04:40:26.418Z,12.60
2017-10-30T04:42:53.956Z,12.70
2017-10-30T04:45:21.465Z,13.10
2017-10-30T04:47:49.472Z,15.27
2017-10-30T04:50:17.782Z,15.87
2017-10-30T04:52:45.335Z,18.67
2017-10-30T04:55:12.868Z,15.73
2017-10-30T04:57:41.635Z,12.53
2017-10-30T05:00:09.685Z,10.90
2017-10-30T05:02:37.221Z,10.90
2017-10-30T05:05:04.733Z,20.27
2017-10-30T05:07:32.255Z,11.70
2017-10-30T05:10:00.210Z,8.00
2017-10-30T05:12:27.747Z,17.10
2017-10-30T05:14:56.015Z,8.90
2017-10-30T05:17:23.552Z,9.47
2017-10-30T05:19:51.057Z,9.43
2017-10-30T05:22:18.598Z,12.87
2017-10-30T05:24:46.860Z,9.40
2017-10-30T05:27:14.431Z,11.90
2017-10-30T05:29:41.974Z,11.60
2017-10-30T05:32:09.515Z,11.43
2017-10-30T05:34:37.708Z,10.27
2017-10-30T05:37:05.244Z,14.03
2017-10-30T05:39:32.751Z,11.53
2017-10-30T05:42:00.263Z,9.27
2017-10-30T05:44:27.767Z,12.90
2017-10-30T05:46:55.299Z,17.10
2017-10-30T05:49:23.573Z,14.90
2017-10-30T05:51:51.073Z,9.23
2017-10-30T05:54:18.582Z,11.53
2017-10-30T05:56:46.102Z,12.60
2017-10-30T05:59:13.604Z,13.33
2017-10-30T06:01:41.195Z,17.43
2017-10-30T06:04:08.691Z,11.67
2017-10-30T06:06:36.287Z,8.30
2017-10-30T06:09:03.811Z,15.60
2017-10-30T06:11:31.328Z,7.43
2017-10-30T06:13:58.858Z,9.50
2017-10-30T06:16:26.397Z,12.50
2017-10-30T06:18:53.952Z,11.33
2017-10-30T06:21:21.494Z,10.80
2017-10-30T06:23:49.029Z,10.80
2017-10-30T06:26:16.594Z,8.83
2017-10-30T06:28:44.080Z,10.67
2017-10-30T06:31:11.613Z,11.83
2017-10-30T06:33:39.312Z,12.50
2017-10-30T06:36:06.806Z,10.70
2017-10-30T06:38:35.105Z,11.57
2017-10-30T06:41:02.652Z,10.30
2017-10-30T06:43:30.193Z,13.73
2017-10-30T06:45:58.515Z,14.17
2017-10-30T06:48:26.020Z,12.67
2017-10-30T06:50:53.544Z,14.23
2017-10-30T06:53:21.119Z,22.90
2017-10-30T06:55:48.652Z,9.90
2017-10-30T06:58:16.155Z,8.33
2017-10-30T07:00:43.830Z,9.60
2017-10-30T07:03:12.143Z,12.87
2017-10-30T07:05:39.701Z,17.87
2017-10-30T07:08:07.200Z,9.17
2017-10-30T07:10:35.379Z,15.77
2017-10-30T07:13:02.959Z,10.20
2017-10-30T07:15:30.476Z,16.30
2017-10-30T07:17:58.059Z,12.57
2017-10-30T07:20:25.607Z,9.80
2017-10-30T07:22:53.152Z,10.80
2017-10-30T07:25:20.664Z,13.47
2017-10-30T07:27:48.980Z,9.23
2017-10-30T07:30:16.510Z,17.50
2017-10-30T07:32:44.029Z,18.67
2017-10-30T07:35:11.613Z,26.00
2017-10-30T07:37:39.118Z,9.93
2017-10-30T07:40:06.664Z,7.90
2017-10-30T07:42:34.193Z,13.50
2017-10-30T07:45:02.468Z,14.43
2017-10-30T07:47:30.037Z,12.43
2017-10-30T07:49:57.559Z,10.50
2017-10-30T07:52:25.172Z,8.00
2017-10-30T07:54:52.724Z,15.73
2017-10-30T07:57:20.243Z,12.80
2017-10-30T07:59:47.763Z,17.60
2017-10-30T08:02:15.980Z,13.73
2017-10-30T08:04:43.474Z,11.47
2017-10-30T08:07:12.175Z,19.07
2017-10-30T08:09:39.725Z,10.87
2017-10-30T08:12:07.285Z,11.40
2017-10-30T08:14:34.895Z,11.80
2017-10-30T08:17:02.493Z,14.30
2017-10-30T08:19:30.512Z,13.57
2017-10-30T08:21:58.024Z,12.97
2017-10-30T08:24:25.596Z,14.60
2017-10-30T08:26:53.133Z,11.13
2017-10-30T08:29:20.668Z,10.53
2017-10-30T08:31:49.004Z,8.67
2017-10-30T08:34:16.515Z,9.13
2017-10-30T08:36:44.844Z,13.03
2017-10-30T08:39:12.412Z,7.57
2017-10-30T08:41:39.954Z,9.43
2017-10-30T08:44:07.456Z,11.03
2017-10-30T08:46:34.957Z,11.53
2017-10-30T08:49:02.488Z,14.53
2017-10-30T08:51:30.777Z,7.40
2017-10-30T08:53:58.330Z,15.07
2017-10-30T08:56:26.605Z,14.83
2017-10-30T08:58:54.129Z,14.90
2017-10-30T09:01:21.651Z,13.20
2017-10-30T09:03:49.191Z,9.47
2017-10-30T09:06:16.704Z,10.90
2017-10-30T09:08:44.244Z,9.70
2017-10-30T09:11:11.787Z,16.97
2017-10-30T09:13:39.456Z,21.87
2017-10-30T09:16:07.059Z,24.30
2017-10-30T09:18:34.566Z,11.67
2017-10-30T09:21:02.073Z,12.93
2017-10-30T09:23:30.115Z,19.50
2017-10-30T09:25:57.671Z,14.30
2017-10-30T09:28:25.208Z,14.63
2017-10-30T09:30:53.537Z,11.20
2017-10-30T09:33:21.087Z,12.27
2017-10-30T09:35:48.608Z,16.97
2017-10-30T09:38:16.112Z,8.80
2017-10-30T09:40:43.608Z,17.90
2017-10-30T09:43:11.139Z,10.00
2017-10-30T09:45:39.659Z,15.37
2017-10-30T09:48:07.179Z,20.70
2017-10-30T09:50:34.688Z,16.13
2017-10-30T09:53:02.235Z,14.10
2017-10-30T09:55:30.616Z,15.27
2017-10-30T09:57:58.117Z,9.07
2017-10-30T10:00:25.682Z,17.63
2017-10-30T10:02:53.201Z,17.30
2017-10-30T10:05:20.749Z,18.20
2017-10-30T10:07:48.361Z,7.80
2017-10-30T10:10:15.855Z,12.13
2017-10-30T10:12:43.571Z,10.73
2017-10-30T10:15:11.101Z,12.60
2017-10-30T10:17:38.684Z,13.47
2017-10-30T10:20:06.200Z,11.73
2017-10-30T10:22:33.742Z,12.13
2017-10-30T10:25:01.307Z,18.43
2017-10-30T10:27:28.834Z,10.57
2017-10-30T10:29:56.764Z,10.10
2017-10-30T10:32:24.302Z,10.93
2017-10-30T10:34:51.871Z,10.80
2017-10-30T10:37:19.455Z,14.00
2017-10-30T10:39:47.151Z,12.07
2017-10-30T10:42:14.697Z,10.50
2017-10-30T10:44:42.272Z,10.47
2017-10-30T10:47:09.826Z,11.10
2017-10-30T10:49:37.339Z,16.30
2017-10-30T10:52:04.912Z,14.37
2017-10-30T10:54:32.431Z,12.47
2017-10-30T10:57:00.004Z,14.03
2017-10-30T10:59:27.980Z,9.50
2017-10-30T11:01:55.483Z,11.93
2017-10-30T11:04:23.090Z,16.70
2017-10-30T11:06:50.599Z,24.00
2017-10-30T11:09:18.625Z,12.83
2017-10-30T11:11:46.163Z,12.43
2017-10-30T11:14:13.709Z,11.30
2017-10-30T11:16:41.231Z,14.67
2017-10-30T11:19:08.833Z,10.57
2017-10-30T11:21:37.157Z,14.27
2017-10-30T11:24:04.734Z,13.80
2017-10-30T11:26:32.883Z,9.20
2017-10-30T11:29:00.405Z,12.07
2017-10-30T11:31:28.757Z,12.87
2017-10-30T11:33:56.278Z,18.80
2017-10-30T11:36:23.807Z,14.10
2017-10-30T11:38:52.078Z,12.80
2017-10-30T11:41:20.429Z,9.43
2017-10-30T11:43:47.925Z,9.33
2017-10-30T11:46:15.450Z,12.77
2017-10-30T11:48:43.014Z,9.03
2017-10-30T11:51:10.526Z,12.23
2017-10-30T11:53:38.026Z,16.40
2017-10-30T11:56:05.555Z,8.30
2017-10-30T11:58:33.049Z,15.17
2017-10-30T12:01:00.600Z,5.93
2017-10-30T12:03:28.092Z,8.60
2017-10-30T12:05:55.604Z,6.50
2017-10-30T12:08:23.131Z,7.27
2017-10-30T12:10:50.645Z,5.83
2017-10-30T12:13:18.173Z,8.10
2017-10-30T12:15:45.734Z,7.67
2017-10-30T12:18:13.257Z,9.37
2017-10-30T12:20:40.825Z,7.10
2017-10-30T12:23:08.333Z,5.53
2017-10-30T12:25:36.298Z,11.33
2017-10-30T12:28:04.430Z,12.40
2017-10-30T12:30:31.941Z,12.57
2017-10-30T12:32:59.684Z,8.40
2017-10-30T12:35:27.196Z,11.23
2017-10-30T12:37:54.707Z,18.43
2017-10-30T12:40:22.263Z,10.67
2017-10-30T12:42:49.792Z,11.87
2017-10-30T12:45:17.706Z,12.00
2017-10-30T12:47:45.217Z,7.83
2017-10-30T12:50:12.742Z,9.87
2017-10-30T12:52:41.065Z,8.53
2017-10-30T12:55:08.573Z,10.10
2017-10-30T12:57:36.066Z,8.73
2017-10-30T13:00:03.618Z,5.83
2017-10-30T13:02:31.914Z,8.53
2017-10-30T13:04:59.426Z,9.83
2017-10-30T13:07:26.994Z,8.47
2017-10-30T13:09:54.504Z,8.07
2017-10-30T13:12:21.999Z,6.10
2017-10-30T13:14:49.568Z,10.77
2017-10-30T13:17:17.076Z,9.23
2017-10-30T13:19:44.584Z,6.70
2017-10-30T13:22:12.133Z,8.13
2017-10-30T13:24:39.642Z,8.03
2017-10-30T13:27:07.172Z,5.37
2017-10-30T13:29:35.460Z,5.80
2017-10-30T13:32:02.960Z,10.60
2017-10-30T13:34:30.530Z,12.83
2017-10-30T13:36:58.061Z,7.63
2017-10-30T13:39:25.564Z,3.10
2017-10-30T13:41:53.116Z,5.37
2017-10-30T13:44:20.618Z,7.83
2017-10-30T13:46:48.887Z,8.20
2017-10-30T13:49:16.376Z,8.60
2017-10-30T13:51:43.879Z,7.70
2017-10-30T13:54:11.421Z,10.63
2017-10-30T13:56:38.925Z,5.50
2017-10-30T13:59:06.415Z,9.60
2017-10-30T14:01:33.972Z,12.10
2017-10-30T14:04:01.464Z,6.30
2017-10-30T14:06:28.973Z,6.97
2017-10-30T14:08:56.502Z,9.63
2017-10-30T14:11:24.774Z,12.00
2017-10-30T14:13:52.299Z,11.83
2017-10-30T14:16:19.852Z,11.37
2017-10-30T14:18:47.361Z,7.40
2017-10-30T14:21:15.404Z,6.10
2017-10-30T14:23:42.947Z,7.73
2017-10-30T14:26:10.443Z,10.37
2017-10-30T14:28:37.989Z,10.03
2017-10-30T14:31:05.526Z,4.80
2017-10-30T14:33:33.043Z,9.87
2017-10-30T14:36:00.586Z,4.93
2017-10-30T14:38:28.864Z,12.20
2017-10-30T14:40:57.124Z,13.83
2017-10-30T14:43:25.416Z,7.07
2017-10-30T14:45:52.973Z,7.50
2017-10-30T14:48:21.198Z,4.00
2017-10-30T14:50:48.719Z,12.60
2017-10-30T14:53:16.230Z,7.30
2017-10-30T14:55:43.792Z,10.57
2017-10-30T14:58:11.347Z,8.70
2017-10-30T15:00:38.847Z,7.27
2017-10-30T15:03:07.110Z,7.40
2017-10-30T15:05:35.189Z,6.57
2017-10-30T15:08:03.261Z,5.80
2017-10-30T15:10:30.756Z,7.47
2017-10-30T15:12:58.304Z,14.23
2017-10-30T15:15:25.815Z,10.87
2017-10-30T15:17:53.349Z,7.60
2017-10-30T15:20:21.042Z,7.53
2017-10-30T15:22:48.568Z,7.90
2017-10-30T15:25:16.106Z,6.93
2017-10-30T15:27:43.703Z,8.47
2017-10-30T15:30:11.235Z,16.17
2017-10-30T15:32:38.825Z,12.63
2017-10-30T15:35:06.331Z,6.03
2017-10-30T15:37:33.862Z,8.23
2017-10-30T15:40:02.139Z,6.20
2017-10-30T15:42:29.644Z,4.83
2017-10-30T15:44:57.187Z,12.40
2017-10-30T15:47:24.679Z,6.50
2017-10-30T15:49:52.229Z,6.33
2017-10-30T15:52:20.479Z,9.53
2017-10-30T15:54:48.046Z,9.97
2017-10-30T15:57:15.576Z,6.93
2017-10-30T15:59:43.233Z,6.30
2017-10-30T16:02:11.528Z,6.60
2017-10-30T16:04:39.029Z,11.93
2017-10-30T16:07:06.581Z,18.27
2017-10-30T16:09:34.322Z,10.83
2017-10-30T16:12:01.819Z,17.33
2017-10-30T16:14:29.677Z,7.93
2017-10-30T16:16:57.201Z,9.47
2017-10-30T16:19:24.711Z,9.80
2017-10-30T16:21:52.263Z,13.10
2017-10-30T16:24:19.763Z,10.40
2017-10-30T16:26:47.326Z,11.53
2017-10-30T16:29:14.856Z,12.27
2017-10-30T16:31:42.397Z,11.90
2017-10-30T16:34:09.949Z,15.20
2017-10-30T16:36:38.600Z,10.20
2017-10-30T16:39:06.126Z,10.13
2017-10-30T16:41:33.652Z,12.03
2017-10-30T16:44:01.192Z,10.53
2017-10-30T16:46:28.753Z,11.60
2017-10-30T16:48:56.274Z,7.50
2017-10-30T16:51:23.768Z,12.00
2017-10-30T16:53:52.101Z,12.30
2017-10-30T16:56:19.774Z,9.10
2017-10-30T16:58:47.280Z,6.03
2017-10-30T17:01:14.910Z,17.00
2017-10-30T17:03:42.445Z,12.77
2017-10-30T17:06:10.715Z,13.43
2017-10-30T17:08:38.223Z,19.80
2017-10-30T17:11:06.351Z,11.83
2017-10-30T17:13:33.876Z,15.10
2017-10-30T17:16:01.389Z,11.90
2017-10-30T17:18:29.288Z,15.33
2017-10-30T17:20:56.784Z,11.80
2017-10-30T17:23:24.327Z,11.77
2017-10-30T17:25:51.881Z,12.20
2017-10-30T17:28:19.421Z,12.87
2017-10-30T17:30:47.090Z,14.67
2017-10-30T17:33:14.572Z,9.43
2017-10-30T17:35:42.091Z,13.17
2017-10-30T17:38:09.659Z,11.67
2017-10-30T17:40:37.164Z,16.00
2017-10-30T17:43:04.678Z,11.00
2017-10-30T17:45:32.232Z,16.00
2017-10-30T17:47:59.729Z,34.13
2017-10-30T17:50:27.248Z,14.60
2017-10-30T17:52:54.822Z,17.07
2017-10-30T17:55:22.343Z,20.13
2017-10-30T17:57:49.882Z,17.70
2017-10-30T18:00:17.432Z,13.80
2017-10-30T18:02:45.696Z,15.00
2017-10-30T18:05:13.293Z,15.23
2017-10-30T18:07:40.824Z,15.53
2017-10-30T18:10:09.153Z,16.67
2017-10-30T18:12:36.706Z,27.00
2017-10-30T18:15:04.211Z,12.63
2017-10-30T18:17:32.542Z,20.73
2017-10-30T18:20:00.079Z,26.47
2017-10-30T18:22:27.578Z,45.83
2017-10-30T18:24:55.078Z,19.50
2017-10-30T18:27:23.380Z,29.60
2017-10-30T18:29:50.888Z,28.27
2017-10-30T18:32:18.421Z,24.47
2017-10-30T18:34:45.932Z,17.20
2017-10-30T18:37:13.494Z,14.90
2017-10-30T18:39:40.984Z,21.60
2017-10-30T18:42:08.519Z,29.10
2017-10-30T18:44:36.022Z,19.90
2017-10-30T18:47:03.549Z,26.80
2017-10-30T18:49:31.403Z,23.33
2017-10-30T18:51:59.549Z,19.90
2017-10-30T18:54:27.817Z,22.83
2017-10-30T18:56:55.772Z,18.37
2017-10-30T18:59:23.311Z,16.83
2017-10-30T19:01:50.870Z,22.80
2017-10-30T19:04:18.396Z,16.67
2017-10-30T19:06:45.964Z,15.60
2017-10-30T19:09:13.504Z,24.57
2017-10-30T19:11:41.779Z,20.83
2017-10-30T19:14:09.312Z,19.40
2017-10-30T19:16:36.839Z,21.03
2017-10-30T19:19:04.390Z,22.43
2017-10-30T19:21:31.911Z,23.53
2017-10-30T19:24:00.182Z,32.17
2017-10-30T19:26:28.499Z,18.00
2017-10-30T19:28:56.002Z,18.10
2017-10-30T19:31:24.312Z,20.87
2017-10-30T19:33:51.856Z,18.40
2017-10-30T19:36:20.123Z,24.47
2017-10-30T19:38:47.661Z,16.07
2017-10-30T19:41:15.222Z,20.03
2017-10-30T19:43:42.731Z,13.70
2017-10-30T19:46:10.255Z,15.83
2017-10-30T19:48:37.776Z,13.50
2017-10-30T19:51:05.274Z,11.53
2017-10-30T19:53:32.839Z,15.57
2017-10-30T19:56:00.349Z,13.00
2017-10-30T19:58:27.849Z,12.03
2017-10-30T20:00:55.429Z,14.73
2017-10-30T20:03:23.697Z,12.43
2017-10-30T20:05:57.513Z,11.03
2017-10-30T20:08:31.437Z,17.50
2017-10-30T20:11:04.934Z,21.40
2017-10-30T20:13:32.447Z,15.60
2017-10-30T20:15:59.957Z,14.23
2017-10-30T20:18:27.485Z,18.20
2017-10-30T20:20:55.012Z,18.13
2017-10-30T20:23:22.840Z,19.37
2017-10-30T20:25:50.385Z,17.77
2017-10-30T20:28:17.921Z,17.67
2017-10-30T20:30:45.480Z,15.50
2017-10-30T20:33:12.986Z,23.47
2017-10-30T20:35:40.485Z,14.40
2017-10-30T20:38:08.027Z,18.37
2017-10-30T20:40:35.558Z,13.50
2017-10-30T20:43:03.144Z,16.13
2017-10-30T20:45:30.636Z,20.07
2017-10-30T20:47:58.964Z,14.20
2017-10-30T20:50:26.469Z,12.93
2017-10-30T20:52:54.003Z,20.30
2017-10-30T20:55:21.510Z,14.67
2017-10-30T20:57:49.827Z,11.60
2017-10-30T21:00:17.431Z,12.37
2017-10-30T21:02:44.977Z,19.07
2017-10-30T21:05:12.535Z,15.43
2017-10-30T21:07:40.071Z,13.67
2017-10-30T21:10:07.641Z,14.57
2017-10-30T21:12:35.150Z,13.57
2017-10-30T21:15:02.735Z,23.30
2017-10-30T21:17:30.246Z,24.97
2017-10-30T21:19:57.774Z,22.63
2017-10-30T21:22:25.336Z,17.37
2017-10-30T21:24:52.847Z,16.00
2017-10-30T21:27:20.532Z,20.13
2017-10-30T21:29:48.074Z,19.87
2017-10-30T21:32:15.577Z,18.90
2017-10-30T21:34:43.102Z,19.33
2017-10-30T21:37:10.651Z,21.27
2017-10-30T21:39:38.227Z,12.10
2017-10-30T21:42:05.727Z,20.73
2017-10-30T21:44:33.237Z,20.03
2017-10-30T21:47:00.764Z,16.60
2017-10-30T21:49:28.303Z,16.10
2017-10-30T21:51:55.816Z,16.43
2017-10-30T21:54:23.369Z,13.93
2017-10-30T21:56:50.912Z,24.43
2017-10-30T21:59:18.421Z,16.03
2017-10-30T22:01:45.986Z,18.77
2017-10-30T22:04:13.513Z,18.10
2017-10-30T22:06:41.076Z,32.70
2017-10-30T22:09:09.074Z,24.60
2017-10-30T22:11:36.615Z,20.43
2017-10-30T22:14:04.193Z,20.77
2017-10-30T22:16:31.723Z,23.03
2017-10-30T22:18:59.301Z,19.70
2017-10-30T22:21:26.815Z,24.63
2017-10-30T22:23:54.339Z,21.07
2017-10-30T22:26:21.899Z,25.57
2017-10-30T22:28:49.392Z,19.77
2017-10-30T22:31:16.931Z,24.13
2017-10-30T22:33:45.200Z,24.53
2017-10-30T22:36:12.730Z,23.37
2017-10-30T22:38:40.260Z,25.90
2017-10-30T22:41:07.763Z,26.73
2017-10-30T22:43:35.603Z,23.80
2017-10-30T22:46:03.116Z,28.70
2017-10-30T22:48:30.612Z,27.73
2017-10-30T22:50:58.921Z,41.40
2017-10-30T22:53:26.462Z,22.10
2017-10-30T22:55:53.978Z,23.63
2017-10-30T22:58:22.274Z,31.47
2017-10-30T23:00:49.823Z,31.17
2017-10-30T23:03:17.363Z,27.83
2017-10-30T23:05:44.889Z,21.20
2017-10-30T23:08:12.422Z,22.50
2017-10-30T23:10:40.880Z,30.47
2017-10-30T23:13:08.448Z,26.33
2017-10-30T23:15:35.955Z,28.60
2017-10-30T23:18:03.505Z,21.20
2017-10-30T23:20:31.012Z,23.17
2017-10-30T23:22:58.505Z,26.07
2017-10-30T23:25:26.051Z,20.60
2017-10-30T23:27:53.751Z,22.33
2017-10-30T23:30:21.284Z,29.90
2017-10-30T23:32:48.840Z,24.00
2017-10-30T23:35:16.359Z,19.10
2017-10-30T23:37:44.623Z,17.63
2017-10-30T23:40:12.173Z,25.63
2017-10-30T23:42:39.669Z,26.87
2017-10-30T23:45:07.172Z,33.10
2017-10-30T23:47:34.708Z,27.97
2017-10-30T23:50:02.404Z,23.50
2017-10-30T23:52:29.943Z,23.50
2017-10-30T23:54:57.501Z,24.83
2017-10-30T23:57:25.026Z,24.20
2017-10-30T23:59:52.570Z,22.00
